createdAt,value
2023-05-11T00:03:11.745Z,392.0342
2023-05-11T00:08:24.078Z,392.2958
2023-05-11T00:13:36.331Z,392.1214
2023-05-11T00:18:48.567Z,392.2086
2023-05-11T00:24:00.934Z,392.2958
2023-05-11T00:29:13.043Z,392.4675
2023-05-11T00:34:25.261Z,393.3315
2023-05-11T00:39:37.449Z,393.3315
2023-05-11T00:44:49.623Z,393.5931
2023-05-11T00:45:02.071Z,392.7264
2023-05-11T00:50:14.261Z,393.1598
2023-05-11T00:55:26.505Z,393.5931
2023-05-11T01:00:38.694Z,393.3315
2023-05-11T01:05:51.079Z,393.9366
2023-05-11T01:11:03.433Z,393.8521
2023-05-11T01:16:15.608Z,394.111
2023-05-11T01:21:27.784Z,394.111
2023-05-11T01:26:39.917Z,394.2827
2023-05-11T01:31:52.066Z,393.9366
2023-05-11T01:37:04.381Z,394.2827
2023-05-11T01:42:16.480Z,394.111
2023-05-11T01:47:28.803Z,394.7161
2023-05-11T01:52:40.956Z,395.1494
2023-05-11T01:57:53.071Z,393.5059
2023-05-11T02:03:05.723Z,394.2827
2023-05-11T02:08:18.168Z,394.3699
2023-05-11T02:13:30.339Z,393.8521
2023-05-11T02:18:42.497Z,393.247
2023-05-11T02:23:54.698Z,393.8521
2023-05-11T02:29:06.821Z,394.1982
2023-05-11T02:34:19.038Z,393.5931
2023-05-11T02:39:31.150Z,393.5059
2023-05-11T02:44:43.834Z,393.7649
2023-05-11T02:49:55.963Z,394.1982
2023-05-11T02:55:08.320Z,393.9366
2023-05-11T03:00:20.898Z,394.0238
2023-05-11T03:05:33.471Z,394.0238
2023-05-11T03:10:45.786Z,394.2827
2023-05-11T03:16:00.730Z,394.7161
2023-05-11T03:21:13.029Z,395.1494
2023-05-11T03:26:25.208Z,395.234
2023-05-11T03:31:37.340Z,395.234
2023-05-11T03:36:49.524Z,396.2724
2023-05-11T03:42:01.687Z,395.6673
2023-05-11T03:47:13.871Z,395.6673
2023-05-11T03:52:26.497Z,396.4468
2023-05-11T03:57:38.706Z,396.2724
2023-05-11T04:02:50.950Z,396.6185
2023-05-11T04:08:03.106Z,396.7929
2023-05-11T04:13:15.208Z,397.0518
2023-05-11T04:18:27.361Z,397.3108
2023-05-11T04:23:39.592Z,396.8775
2023-05-11T04:28:51.817Z,397.1364
2023-05-11T04:34:03.947Z,396.5313
2023-05-11T04:39:16.145Z,395.8417
2023-05-11T04:44:28.504Z,396.0135
2023-05-11T04:49:40.692Z,396.3596
2023-05-11T04:54:52.895Z,396.2724
2023-05-11T05:00:05.311Z,396.4468
2023-05-11T05:05:17.956Z,396.2724
2023-05-11T05:10:30.074Z,396.1852
2023-05-11T05:15:42.306Z,395.4084
2023-05-11T05:20:54.419Z,395.7545
2023-05-11T05:26:07.045Z,395.5801
2023-05-11T05:31:19.179Z,396.0135
2023-05-11T05:36:31.301Z,395.234
2023-05-11T05:41:43.398Z,395.5801
2023-05-11T05:46:55.506Z,395.4084
2023-05-11T05:52:07.649Z,395.9262
2023-05-11T05:57:19.804Z,395.3212
2023-05-11T06:02:32.058Z,396.0135
2023-05-11T06:07:49.336Z,395.4929
2023-05-11T06:13:08.700Z,395.1494
2023-05-11T06:18:21.339Z,395.1494
2023-05-11T06:23:34.093Z,395.5801
2023-05-11T06:28:51.316Z,395.0622
2023-05-11T06:34:03.430Z,395.4084
2023-05-11T06:39:15.558Z,395.4929
2023-05-11T06:44:27.680Z,394.8033
2023-05-11T06:49:39.810Z,395.5801
2023-05-11T06:54:51.930Z,395.4929
2023-05-11T07:00:09.110Z,395.0622
2023-05-11T07:05:21.258Z,394.8033
2023-05-11T07:10:33.378Z,394.4572
2023-05-11T07:15:45.508Z,394.4572
2023-05-11T07:20:59.676Z,394.5443
2023-05-11T07:26:11.795Z,395.0622
2023-05-11T07:31:24.550Z,394.4572
2023-05-11T07:36:36.670Z,394.111
2023-05-11T07:41:48.783Z,393.8521
2023-05-11T07:47:00.886Z,394.5443
2023-05-11T07:52:12.942Z,394.2827
2023-05-11T07:57:25.086Z,394.4572
2023-05-11T08:02:37.345Z,394.8878
2023-05-11T08:07:49.565Z,395.0622
2023-05-11T08:13:02.056Z,394.6289
2023-05-11T08:18:14.414Z,395.1494
2023-05-11T08:23:28.842Z,393.9366
2023-05-11T08:28:41.077Z,394.975
2023-05-11T08:33:53.237Z,395.1494
2023-05-11T08:39:05.892Z,394.111
2023-05-11T08:44:18.087Z,394.2827
2023-05-11T08:49:30.301Z,394.8033
2023-05-11T08:54:44.055Z,394.111
2023-05-11T08:59:57.902Z,394.4572
2023-05-11T09:05:10.092Z,394.7161
2023-05-11T09:10:22.469Z,394.3699
2023-05-11T09:15:38.187Z,394.5443
2023-05-11T09:20:50.759Z,394.4572
2023-05-11T09:26:02.882Z,394.5443
2023-05-11T09:31:15.016Z,394.8033
2023-05-11T09:36:27.342Z,394.975
2023-05-11T09:41:39.471Z,394.6289
2023-05-11T09:46:51.683Z,395.4929
2023-05-11T09:52:03.803Z,394.3699
2023-05-11T09:57:15.930Z,394.6289
2023-05-11T10:02:28.157Z,394.4572
2023-05-11T10:07:40.435Z,394.6289
2023-05-11T10:12:52.563Z,395.4084
2023-05-11T10:18:04.886Z,394.8878
2023-05-11T10:23:17.111Z,394.8878
2023-05-11T10:28:31.285Z,395.4084
2023-05-11T10:33:44.749Z,395.4929
2023-05-11T10:38:56.883Z,395.0622
2023-05-11T10:44:14.123Z,396.3596
2023-05-11T10:44:26.829Z,396.7057
2023-05-11T10:49:39.210Z,396.4468
2023-05-11T10:54:51.321Z,396.8775
2023-05-11T11:00:03.492Z,396.4468
2023-05-11T11:05:15.730Z,397.1364
2023-05-11T11:10:27.919Z,396.8775
2023-05-11T11:15:40.034Z,397.7441
2023-05-11T11:20:52.246Z,397.0518
2023-05-11T11:26:04.459Z,397.2236
2023-05-11T11:31:16.597Z,397.8287
2023-05-11T11:36:28.747Z,397.8287
2023-05-11T11:41:40.868Z,398.1748
2023-05-11T11:46:53.179Z,397.9159
2023-05-11T11:52:08.173Z,397.9159
2023-05-11T11:57:20.292Z,398.262
2023-05-11T12:02:32.577Z,397.8287
2023-05-11T12:07:44.812Z,399.7338
2023-05-11T12:12:59.222Z,399.9055
2023-05-11T12:13:12.609Z,399.4748
2023-05-11T12:18:24.808Z,398.7825
2023-05-11T12:23:36.871Z,399.821
2023-05-11T12:28:48.984Z,399.821
2023-05-11T12:34:01.117Z,399.6466
2023-05-11T12:39:13.327Z,400.0799
2023-05-11T12:44:25.535Z,401.2901
2023-05-11T12:49:38.184Z,401.0311
2023-05-11T12:54:50.289Z,401.0311
2023-05-11T13:00:02.871Z,402.0695
2023-05-11T13:05:14.973Z,402.4157
2023-05-11T13:10:29.313Z,402.3285
2023-05-11T13:15:41.622Z,402.5029
2023-05-11T13:20:53.936Z,401.9823
2023-05-11T13:26:06.071Z,403.1951
2023-05-11T13:31:18.229Z,402.9362
2023-05-11T13:36:31.128Z,403.6285
2023-05-11T13:41:43.975Z,402.9362
2023-05-11T13:46:56.175Z,403.713
2023-05-11T13:52:08.357Z,403.2823
2023-05-11T13:57:20.493Z,403.1951
2023-05-11T14:02:32.834Z,404.1464
2023-05-11T14:07:48.253Z,404.8413
2023-05-11T14:13:06.128Z,403.9746
2023-05-11T14:18:18.470Z,404.6669
2023-05-11T14:23:31.096Z,405.272
2023-05-11T14:28:43.734Z,405.9642
2023-05-11T14:33:56.139Z,405.272
2023-05-11T14:39:08.714Z,405.8797
2023-05-11T14:44:24.675Z,405.7925
2023-05-11T14:49:36.951Z,406.9181
2023-05-11T14:54:49.141Z,406.0515
2023-05-11T15:00:01.318Z,406.9181
2023-05-11T15:05:13.441Z,406.2258
2023-05-11T15:10:25.560Z,406.3104
2023-05-11T15:15:38.451Z,406.3104
2023-05-11T15:20:51.470Z,406.2258
2023-05-11T15:26:04.091Z,406.0515
2023-05-11T15:31:16.263Z,405.6181
2023-05-11T15:36:29.864Z,406.3976
2023-05-11T15:41:42.236Z,405.8797
2023-05-11T15:46:54.465Z,406.3976
2023-05-11T15:52:07.106Z,405.9642
2023-05-11T15:52:19.727Z,405.8797
2023-05-11T15:57:31.841Z,405.7925
2023-05-11T16:02:44.169Z,406.2258
2023-05-11T16:07:56.345Z,405.1848
2023-05-11T16:13:09.188Z,405.7925
2023-05-11T16:18:21.449Z,406.6592
2023-05-11T16:23:33.867Z,406.1386
2023-05-11T16:28:46.033Z,406.8309
2023-05-11T16:33:58.188Z,406.4848
2023-05-11T16:39:10.751Z,407.0898
2023-05-11T16:44:22.924Z,406.8309
2023-05-11T16:49:35.033Z,406.4848
2023-05-11T16:54:47.220Z,406.7437
2023-05-11T17:00:02.929Z,406.3104
2023-05-11T17:05:17.430Z,405.6181
2023-05-11T17:10:29.569Z,405.7925
2023-05-11T17:15:41.772Z,405.6181
2023-05-11T17:20:53.943Z,405.272
2023-05-11T17:26:06.168Z,405.7053
2023-05-11T17:31:18.490Z,405.7053
2023-05-11T17:36:31.366Z,405.7053
2023-05-11T17:41:44.121Z,406.4848
2023-05-11T17:46:56.448Z,405.6181
2023-05-11T17:52:08.635Z,404.9258
2023-05-11T17:52:20.761Z,404.6669
2023-05-11T17:57:33.445Z,405.3592
2023-05-11T18:02:46.392Z,405.3592
2023-05-11T18:07:59.153Z,404.408
2023-05-11T18:13:11.297Z,404.408
2023-05-11T18:18:23.528Z,403.6285
2023-05-11T18:23:35.675Z,403.2823
2023-05-11T18:28:48.169Z,403.3695
2023-05-11T18:34:00.274Z,404.3207
2023-05-11T18:39:12.428Z,403.1079
2023-05-11T18:44:24.495Z,402.9362
2023-05-11T18:49:37.151Z,402.5029
2023-05-11T18:54:49.281Z,401.3773
2023-05-11T19:00:01.516Z,402.5029
2023-05-11T19:05:13.753Z,401.2055
2023-05-11T19:10:27.826Z,400.5132
2023-05-11T19:15:40.124Z,399.9055
2023-05-11T19:20:52.233Z,399.821
2023-05-11T19:26:04.427Z,399.5594
2023-05-11T19:31:16.556Z,400.1671
2023-05-11T19:36:28.698Z,399.3876
2023-05-11T19:41:40.845Z,399.4748
2023-05-11T19:46:53.113Z,398.6082
2023-05-11T19:52:05.244Z,398.9543
2023-05-11T19:57:17.356Z,399.2132
2023-05-11T20:02:29.965Z,399.3004
2023-05-11T20:07:42.220Z,398.6953
2023-05-11T20:12:55.339Z,398.4364
2023-05-11T20:18:07.601Z,399.7338
2023-05-11T20:23:22.120Z,399.3004
2023-05-11T20:28:34.262Z,399.3004
2023-05-11T20:39:12.248Z,398.7825
2023-05-11T20:44:24.397Z,398.5236
2023-05-11T20:49:39.368Z,399.9055
2023-05-11T20:54:51.859Z,400.0799
2023-05-11T21:00:04.612Z,399.6466
2023-05-11T21:05:17.306Z,399.4748
2023-05-11T21:10:29.490Z,399.3004
2023-05-11T21:15:42.642Z,400.4261
2023-05-11T21:20:54.828Z,400.3388
2023-05-11T21:26:07.128Z,399.3876
2023-05-11T21:31:19.261Z,398.8671
2023-05-11T21:36:31.545Z,399.6466
2023-05-11T21:47:03.978Z,399.9927
2023-05-11T21:52:16.728Z,399.821
2023-05-11T21:57:29.371Z,399.5594
2023-05-11T22:02:41.616Z,399.821
2023-05-11T22:08:00.375Z,399.2132
2023-05-11T22:13:19.364Z,399.821
2023-05-11T22:18:31.689Z,398.8671
2023-05-11T22:23:43.944Z,398.9543
2023-05-11T22:29:00.348Z,399.1287
2023-05-11T22:34:12.530Z,399.2132
2023-05-11T22:39:25.020Z,399.1287
2023-05-11T22:44:37.144Z,399.5594
2023-05-11T22:49:49.383Z,399.0415
2023-05-11T22:55:02.150Z,399.6466
2023-05-11T23:00:14.704Z,399.9927
2023-05-11T23:05:26.966Z,400.5978
2023-05-11T23:10:39.413Z,400.2516
2023-05-11T23:15:52.171Z,400.4261
2023-05-11T23:21:04.868Z,400.5132
2023-05-11T23:26:17.037Z,400.8594
2023-05-11T23:31:29.689Z,400.8594
2023-05-11T23:36:41.843Z,401.4644
2023-05-11T23:41:54.178Z,400.9439
2023-05-11T23:47:06.434Z,401.4644
2023-05-11T23:52:18.566Z,402.2439
2023-05-11T23:57:30.801Z,402.1567
